Time;durP1;ratioP1;P1;durP2;ratioP2;P2;SDS_P1;SDS_P2;PMS_P1;PMS_P2;Temp;Humidity;BMP_temperature;BMP_pressure;BME280_temperature;BME280_humidity;BME280_pressure;Samples;Min_cycle;Max_cycle;Signal;HPM_P1;HPM_P2
2023/07/13 00:00:19;;;;;;;4.83;1.43;;;22.70;97.60;;;;;;4958111;28;20189;-71
2023/07/13 00:02:45;;;;;;;2.10;1.27;;;22.50;97.70;;;;;;4966155;28;20473;-71
2023/07/13 00:05:11;;;;;;;3.27;1.47;;;22.40;97.50;;;;;;4966597;28;20240;-71
2023/07/13 00:07:37;;;;;;;5.90;1.20;;;22.40;97.80;;;;;;4964665;28;20202;-71
2023/07/13 00:10:04;;;;;;;2.67;1.17;;;22.40;97.50;;;;;;4967098;28;20406;-71
2023/07/13 00:12:35;;;;;;;2.10;1.30;;;22.40;97.40;;;;;;4966854;28;20496;-71
2023/07/13 00:15:22;;;;;;;3.23;1.67;;;22.40;97.30;;;;;;4962477;28;20429;-71
2023/07/13 00:17:55;;;;;;;3.50;1.30;;;22.20;97.30;;;;;;4963834;28;20429;-70
2023/07/13 00:20:24;;;;;;;3.63;1.50;;;22.00;97.10;;;;;;4964641;28;20397;-70
2023/07/13 00:22:53;;;;;;;2.50;1.20;;;22.00;97.30;;;;;;4966597;28;20413;-71
2023/07/13 00:25:19;;;;;;;2.67;1.60;;;22.00;97.20;;;;;;4964827;28;20437;-70
2023/07/13 00:27:50;;;;;;;6.17;1.80;;;22.00;97.20;;;;;;4966947;28;20401;-71
2023/07/13 00:30:16;;;;;;;3.77;1.30;;;22.10;97.20;;;;;;4960507;28;20461;-71
2023/07/13 00:32:42;;;;;;;3.33;1.60;;;22.00;97.10;;;;;;4964885;28;20793;-71
2023/07/13 00:35:08;;;;;;;2.40;1.53;;;22.00;96.90;;;;;;4964138;28;20436;-71
2023/07/13 00:37:35;;;;;;;2.60;1.73;;;22.10;97.10;;;;;;4966774;28;20169;-70
2023/07/13 00:40:02;;;;;;;3.47;1.53;;;21.90;96.60;;;;;;4964527;28;20840;-70
2023/07/13 00:42:28;;;;;;;2.90;1.27;;;21.90;97.00;;;;;;4964419;28;20408;-71
2023/07/13 00:45:20;;;;;;;3.53;1.50;;;21.90;96.80;;;;;;4963835;28;20898;-71
2023/07/13 00:47:46;;;;;;;1.73;1.27;;;21.90;96.80;;;;;;4961303;28;20515;-71
2023/07/13 00:50:15;;;;;;;4.80;1.77;;;22.00;96.50;;;;;;4965852;28;20934;-71
2023/07/13 00:52:45;;;;;;;3.37;1.53;;;21.80;96.80;;;;;;4965959;28;20193;-71
2023/07/13 00:55:12;;;;;;;2.40;1.40;;;21.90;96.90;;;;;;4962392;28;20495;-71
2023/07/13 00:57:38;;;;;;;3.63;1.23;;;21.90;97.20;;;;;;4963954;28;20782;-70
2023/07/13 01:00:09;;;;;;;2.80;1.40;;;22.00;96.70;;;;;;4964644;28;20410;-70
2023/07/13 01:02:42;;;;;;;6.17;1.57;;;21.70;96.30;;;;;;4965493;28;20166;-71
2023/07/13 01:05:13;;;;;;;4.83;1.60;;;21.90;96.90;;;;;;4965916;28;20451;-71
2023/07/13 01:07:40;;;;;;;2.60;1.40;;;21.80;96.00;;;;;;4964659;28;20747;-71
2023/07/13 01:10:06;;;;;;;1.87;1.17;;;22.00;96.40;;;;;;4966104;28;20836;-71
2023/07/13 01:12:32;;;;;;;3.27;1.33;;;22.10;96.00;;;;;;4965358;28;20449;-71
2023/07/13 01:15:00;;;;;;;3.60;1.47;;;22.20;96.50;;;;;;4965951;28;20487;-71
2023/07/13 01:17:27;;;;;;;1.63;1.03;;;22.10;96.40;;;;;;4960275;28;20201;-71
2023/07/13 01:19:53;;;;;;;1.70;1.47;;;22.10;96.30;;;;;;4965045;28;20493;-70
2023/07/13 01:22:19;;;;;;;2.00;1.17;;;21.90;95.90;;;;;;4963646;28;20500;-70
2023/07/13 01:24:48;;;;;;;2.33;1.50;;;22.00;96.60;;;;;;4956787;28;20546;-71
2023/07/13 01:27:24;;;;;;;2.70;1.33;;;21.90;96.70;;;;;;4959190;28;20885;-70
2023/07/13 01:29:52;;;;;;;4.90;1.73;;;21.90;96.40;;;;;;4959557;28;20437;-71
2023/07/13 01:32:25;;;;;;;2.20;1.20;;;21.90;96.30;;;;;;4966941;28;20507;-70
2023/07/13 01:34:53;;;;;;;2.30;1.40;;;21.80;96.70;;;;;;4954753;28;20451;-71
2023/07/13 01:37:20;;;;;;;2.57;1.77;;;21.80;97.20;;;;;;4964788;28;20420;-70
2023/07/13 01:39:46;;;;;;;3.20;1.60;;;21.60;96.80;;;;;;4953506;29;20409;-70
2023/07/13 01:42:12;;;;;;;3.53;1.67;;;21.50;97.90;;;;;;4965660;28;20425;-69
2023/07/13 01:44:38;;;;;;;5.20;1.90;;;21.30;98.30;;;;;;4964285;28;20825;-71
2023/07/13 01:47:04;;;;;;;2.23;1.40;;;21.20;98.60;;;;;;4965354;28;20884;-71
2023/07/13 01:49:30;;;;;;;1.93;1.53;;;21.00;98.80;;;;;;4962460;28;20189;-71
2023/07/13 01:51:55;;;;;;;3.90;2.33;;;21.20;99.40;;;;;;4964629;28;20418;-71
2023/07/13 01:54:21;;;;;;;2.60;1.27;;;21.20;99.20;;;;;;4965280;28;20165;-70
2023/07/13 01:56:46;;;;;;;2.07;1.50;;;21.20;99.30;;;;;;4963147;28;20667;-71
2023/07/13 01:59:12;;;;;;;2.20;1.40;;;21.00;99.70;;;;;;4963680;28;20640;-71
2023/07/13 02:01:38;;;;;;;3.93;1.80;;;20.90;99.90;;;;;;4963513;28;20174;-70
2023/07/13 02:04:03;;;;;;;7.67;1.93;;;20.70;99.90;;;;;;4965437;28;20169;-69
2023/07/13 02:06:29;;;;;;;2.67;1.50;;;20.50;99.90;;;;;;4961562;28;20209;-71
2023/07/13 02:08:55;;;;;;;2.20;1.60;;;20.30;99.90;;;;;;4964589;28;20555;-71
2023/07/13 02:11:20;;;;;;;2.70;1.67;;;20.40;99.90;;;;;;4962808;28;20202;-70
2023/07/13 02:13:46;;;;;;;2.80;1.67;;;20.40;99.90;;;;;;4955910;28;20735;-71
2023/07/13 02:16:12;;;;;;;2.60;1.40;;;20.50;99.90;;;;;;4963096;28;20186;-71
2023/07/13 02:18:37;;;;;;;2.03;1.60;;;20.40;99.90;;;;;;4963201;28;20174;-70
2023/07/13 02:21:03;;;;;;;4.43;1.63;;;20.30;99.90;;;;;;4965366;28;20172;-71
2023/07/13 02:23:29;;;;;;;2.47;1.73;;;20.20;99.90;;;;;;4963749;28;20178;-71
2023/07/13 02:25:57;;;;;;;1.57;1.30;;;20.10;99.90;;;;;;4963261;28;20507;-72
2023/07/13 02:28:22;;;;;;;2.70;1.30;;;20.00;99.90;;;;;;4962596;28;20170;-70
2023/07/13 02:30:48;;;;;;;2.70;1.23;;;19.90;99.90;;;;;;4964738;28;20473;-71
2023/07/13 02:33:14;;;;;;;2.60;1.53;;;19.90;99.90;;;;;;4963743;28;20244;-71
2023/07/13 02:35:39;;;;;;;2.37;1.57;;;19.90;99.90;;;;;;4962753;28;20181;-71
2023/07/13 02:38:05;;;;;;;2.43;1.60;;;19.80;99.90;;;;;;4964166;28;20578;-71
2023/07/13 02:40:33;;;;;;;2.40;1.70;;;19.80;99.90;;;;;;4967449;28;20197;-71
2023/07/13 02:42:59;;;;;;;1.60;1.50;;;19.70;99.90;;;;;;4968702;28;20671;-71
2023/07/13 02:45:25;;;;;;;2.80;1.50;;;19.70;99.90;;;;;;4966940;28;20544;-70
2023/07/13 02:47:51;;;;;;;1.77;1.40;;;19.70;99.90;;;;;;4967817;28;20432;-71
2023/07/13 02:50:17;;;;;;;2.23;1.57;;;19.70;99.90;;;;;;4967888;28;20420;-70
2023/07/13 02:52:42;;;;;;;2.47;1.70;;;19.70;99.90;;;;;;4965862;28;20292;-71
2023/07/13 02:55:08;;;;;;;3.77;1.57;;;19.70;99.90;;;;;;4958567;28;20190;-71
2023/07/13 02:57:34;;;;;;;3.43;1.83;;;19.60;99.90;;;;;;4967692;28;20169;-71
2023/07/13 03:00:05;;;;;;;2.40;1.70;;;19.50;99.90;;;;;;4965876;28;20484;-71
2023/07/13 03:02:31;;;;;;;4.63;1.63;;;19.40;99.90;;;;;;4962057;28;20158;-70
2023/07/13 03:04:56;;;;;;;2.30;1.40;;;19.20;99.90;;;;;;4966090;28;20522;-72
2023/07/13 03:07:22;;;;;;;2.97;1.60;;;19.30;99.90;;;;;;4970196;28;20488;-71
2023/07/13 03:09:48;;;;;;;3.57;1.77;;;19.30;99.90;;;;;;4965755;28;20170;-72
2023/07/13 03:12:13;;;;;;;2.43;1.73;;;19.40;99.90;;;;;;4966025;28;20197;-69
2023/07/13 03:14:39;;;;;;;3.90;1.30;;;19.40;99.90;;;;;;4967266;28;20241;-70
2023/07/13 03:17:04;;;;;;;2.03;1.50;;;19.50;99.90;;;;;;4966984;28;20172;-71
2023/07/13 03:19:30;;;;;;;2.93;1.63;;;19.50;99.90;;;;;;4965200;28;20228;-72
2023/07/13 03:21:55;;;;;;;3.10;1.80;;;19.50;99.90;;;;;;4966677;28;20241;-72
2023/07/13 03:24:23;;;;;;;4.60;2.00;;;19.50;99.90;;;;;;4964732;28;20176;-72
2023/07/13 03:26:49;;;;;;;3.23;1.70;;;19.60;99.90;;;;;;4960892;28;20186;-72
2023/07/13 03:29:14;;;;;;;4.43;1.60;;;19.70;99.90;;;;;;4966314;28;20463;-72
2023/07/13 03:31:40;;;;;;;3.30;1.70;;;19.70;99.90;;;;;;4965579;28;20249;-71
2023/07/13 03:34:06;;;;;;;1.97;1.47;;;19.80;99.90;;;;;;4967485;28;20206;-69
2023/07/13 03:36:35;;;;;;;2.57;1.70;;;19.90;99.90;;;;;;4964720;28;20253;-69
2023/07/13 03:39:03;;;;;;;2.77;1.57;;;19.90;99.90;;;;;;4966822;28;20161;-70
2023/07/13 03:41:28;;;;;;;3.60;2.17;;;20.00;99.90;;;;;;4965212;28;20414;-71
2023/07/13 03:43:54;;;;;;;2.77;1.50;;;20.00;99.90;;;;;;4967862;28;20982;-69
2023/07/13 03:46:20;;;;;;;5.03;1.63;;;20.00;99.90;;;;;;4966156;28;20189;-70
2023/07/13 03:48:47;;;;;;;1.70;1.30;;;20.00;99.90;;;;;;4965893;28;20530;-70
2023/07/13 03:51:14;;;;;;;2.90;1.57;;;20.20;99.90;;;;;;4967709;28;20173;-70
2023/07/13 03:53:42;;;;;;;2.90;1.70;;;20.30;99.90;;;;;;4965287;28;20451;-70
2023/07/13 03:56:09;;;;;;;2.80;2.03;;;20.40;99.90;;;;;;4965044;28;20931;-69
2023/07/13 03:58:37;;;;;;;1.90;1.67;;;20.30;99.90;;;;;;4965154;28;20410;-69
2023/07/13 04:01:05;;;;;;;3.20;1.53;;;20.30;99.90;;;;;;4967770;28;20408;-70
2023/07/13 04:03:32;;;;;;;2.47;1.87;;;20.40;99.90;;;;;;4964520;28;20445;-70
2023/07/13 04:06:00;;;;;;;1.90;1.47;;;20.40;99.90;;;;;;4965570;28;20888;-70
2023/07/13 04:08:34;;;;;;;7.87;2.10;;;20.40;99.90;;;;;;4965014;28;20416;-70
2023/07/13 04:11:01;;;;;;;2.43;1.23;;;20.40;99.90;;;;;;4967179;28;20397;-70
2023/07/13 04:13:27;;;;;;;4.27;1.73;;;20.50;99.90;;;;;;4964445;28;20450;-70
2023/07/13 04:15:53;;;;;;;3.30;2.30;;;20.50;99.90;;;;;;4967031;28;20431;-70
2023/07/13 04:18:20;;;;;;;3.40;1.50;;;20.60;99.90;;;;;;4966927;28;20441;-70
2023/07/13 04:20:46;;;;;;;1.60;1.23;;;20.80;99.90;;;;;;4964279;28;20406;-70
2023/07/13 04:23:12;;;;;;;2.23;1.60;;;20.70;99.90;;;;;;4966956;28;20508;-70
2023/07/13 04:25:38;;;;;;;2.00;1.60;;;20.80;99.90;;;;;;4962544;28;20472;-70
2023/07/13 04:28:05;;;;;;;3.50;1.97;;;20.80;99.90;;;;;;4966719;28;20521;-70
2023/07/13 04:30:31;;;;;;;3.50;1.80;;;20.70;99.90;;;;;;4964277;28;20177;-70
2023/07/13 04:32:56;;;;;;;2.83;1.53;;;20.80;99.90;;;;;;4965694;28;20998;-70
2023/07/13 04:35:22;;;;;;;2.43;1.30;;;20.90;99.90;;;;;;4964223;28;20472;-70
2023/07/13 04:37:50;;;;;;;3.10;1.40;;;20.90;99.90;;;;;;4967159;28;20215;-70
2023/07/13 04:40:20;;;;;;;2.57;1.60;;;20.90;99.90;;;;;;4964271;28;20165;-70
2023/07/13 04:42:46;;;;;;;3.70;1.70;;;20.90;99.90;;;;;;4965562;28;20931;-70
2023/07/13 04:45:14;;;;;;;2.50;1.80;;;20.80;99.90;;;;;;4965505;28;20429;-70
2023/07/13 04:47:40;;;;;;;3.10;2.00;;;20.80;99.90;;;;;;4965190;28;20502;-70
2023/07/13 04:50:07;;;;;;;3.53;1.80;;;20.80;99.90;;;;;;4965844;28;20449;-70
2023/07/13 04:52:34;;;;;;;1.93;1.43;;;20.60;99.90;;;;;;4964966;28;20536;-70
2023/07/13 04:55:00;;;;;;;2.73;1.77;;;20.60;99.90;;;;;;4963770;28;20430;-70
2023/07/13 04:57:27;;;;;;;3.33;1.80;;;20.60;99.90;;;;;;4963699;28;20834;-70
2023/07/13 04:59:52;;;;;;;2.90;2.10;;;20.50;99.90;;;;;;4965218;28;20402;-70
2023/07/13 05:02:18;;;;;;;2.90;1.53;;;20.60;99.90;;;;;;4965490;28;20479;-70
2023/07/13 05:04:47;;;;;;;2.60;1.50;;;20.60;99.90;;;;;;4962837;28;20169;-69
2023/07/13 05:07:13;;;;;;;3.70;1.37;;;20.60;99.90;;;;;;4966912;28;20170;-70
2023/07/13 05:09:39;;;;;;;5.57;1.90;;;20.50;99.90;;;;;;4964795;28;20855;-69
2023/07/13 05:12:07;;;;;;;2.10;1.53;;;20.50;99.90;;;;;;4956634;28;20264;-70
2023/07/13 05:14:33;;;;;;;2.77;1.80;;;20.40;99.90;;;;;;4963574;28;20406;-70
2023/07/13 05:16:58;;;;;;;3.93;1.70;;;20.50;99.90;;;;;;4966093;28;20798;-70
2023/07/13 05:19:24;;;;;;;2.57;1.63;;;20.50;99.90;;;;;;4963535;28;20252;-69
2023/07/13 05:21:50;;;;;;;4.27;1.97;;;20.70;99.90;;;;;;4963144;28;20655;-69
2023/07/13 05:24:15;;;;;;;3.07;1.53;;;20.70;99.90;;;;;;4965037;28;20181;-70
2023/07/13 05:26:41;;;;;;;4.43;2.40;;;20.70;99.90;;;;;;4960375;28;20204;-69
2023/07/13 05:29:06;;;;;;;2.03;1.70;;;20.80;99.90;;;;;;4965802;28;20169;-70
2023/07/13 05:31:32;;;;;;;1.90;1.70;;;21.00;99.90;;;;;;4963160;28;20188;-69
2023/07/13 05:33:58;;;;;;;6.90;1.70;;;21.20;99.90;;;;;;4963650;28;20272;-69
2023/07/13 05:36:23;;;;;;;3.00;1.83;;;21.30;99.90;;;;;;4963609;28;20181;-70
2023/07/13 05:38:49;;;;;;;5.57;1.90;;;21.30;99.90;;;;;;4965800;28;20176;-69
2023/07/13 05:41:14;;;;;;;2.70;1.93;;;21.40;99.90;;;;;;4964292;28;20180;-70
2023/07/13 05:43:40;;;;;;;4.47;2.53;;;21.50;99.90;;;;;;4963627;28;20180;-68
2023/07/13 05:46:06;;;;;;;2.93;2.37;;;21.50;99.80;;;;;;4966344;28;20272;-69
2023/07/13 05:48:31;;;;;;;3.77;2.10;;;21.40;99.20;;;;;;4965484;28;20193;-69
2023/07/13 05:50:57;;;;;;;2.73;2.00;;;21.40;98.90;;;;;;4963086;28;20228;-71
2023/07/13 05:53:22;;;;;;;3.30;1.90;;;21.50;98.90;;;;;;4965507;28;20541;-69
2023/07/13 05:55:49;;;;;;;3.57;2.13;;;21.40;98.80;;;;;;4962072;28;20200;-70
2023/07/13 05:58:16;;;;;;;3.00;1.83;;;21.30;98.50;;;;;;4964566;28;20357;-70
2023/07/13 06:00:42;;;;;;;3.40;1.80;;;21.40;99.00;;;;;;4962747;28;20406;-71
2023/07/13 06:03:08;;;;;;;3.00;1.87;;;21.40;98.80;;;;;;4965368;28;20415;-71
2023/07/13 06:05:36;;;;;;;4.20;2.27;;;21.60;98.70;;;;;;4963693;28;20209;-71
2023/07/13 06:08:02;;;;;;;3.43;2.13;;;21.40;98.10;;;;;;4964869;28;20181;-71
2023/07/13 06:10:28;;;;;;;2.97;2.43;;;21.40;98.40;;;;;;4962717;28;20406;-71
2023/07/13 06:12:53;;;;;;;3.93;2.07;;;21.20;98.40;;;;;;4967522;28;20284;-71
2023/07/13 06:15:19;;;;;;;5.60;2.13;;;21.10;98.70;;;;;;4968687;28;20185;-70
2023/07/13 06:17:45;;;;;;;3.20;2.10;;;21.20;98.60;;;;;;4967298;28;20173;-71
2023/07/13 06:20:10;;;;;;;3.87;2.17;;;21.50;98.80;;;;;;4958319;28;20172;-71
2023/07/13 06:22:36;;;;;;;4.60;2.37;;;21.50;98.40;;;;;;4968691;28;20176;-71
2023/07/13 06:25:02;;;;;;;2.67;1.97;;;21.50;98.40;;;;;;4966815;28;20249;-69
2023/07/13 06:27:28;;;;;;;4.90;2.17;;;21.40;98.00;;;;;;4967282;28;20195;-70
2023/07/13 06:29:54;;;;;;;3.07;2.33;;;21.50;98.10;;;;;;4967614;28;20492;-70
2023/07/13 06:32:20;;;;;;;2.10;1.90;;;21.60;97.30;;;;;;4966386;28;20190;-71
2023/07/13 06:34:46;;;;;;;3.10;2.00;;;21.60;97.90;;;;;;4968460;28;20220;-69
2023/07/13 06:37:11;;;;;;;3.03;1.97;;;21.70;97.30;;;;;;4965995;28;20409;-70
2023/07/13 06:39:37;;;;;;;2.73;1.70;;;21.70;97.00;;;;;;4968292;28;20193;-69
2023/07/13 06:42:03;;;;;;;3.17;2.43;;;21.50;96.90;;;;;;4965007;28;20632;-70
2023/07/13 06:44:28;;;;;;;3.80;1.97;;;21.80;96.90;;;;;;4967472;28;20174;-69
2023/07/13 06:46:54;;;;;;;2.27;1.70;;;22.00;96.70;;;;;;4964571;28;20186;-69
2023/07/13 06:49:19;;;;;;;2.53;2.03;;;21.90;96.50;;;;;;4967315;28;20671;-70
2023/07/13 06:51:45;;;;;;;3.33;2.00;;;22.20;96.30;;;;;;4965570;28;20208;-69
2023/07/13 06:54:11;;;;;;;3.37;1.97;;;22.20;95.90;;;;;;4957787;28;20232;-70
2023/07/13 06:56:36;;;;;;;2.87;1.90;;;22.40;95.60;;;;;;4968388;28;20181;-70
2023/07/13 06:59:02;;;;;;;5.20;2.03;;;22.60;95.50;;;;;;4966302;28;20649;-70
2023/07/13 07:01:27;;;;;;;3.92;2.20;;;22.60;95.00;;;;;;4966942;28;20778;-69
2023/07/13 07:03:53;;;;;;;4.43;2.00;;;22.70;94.70;;;;;;4967098;28;20174;-69
2023/07/13 07:06:23;;;;;;;2.53;1.60;;;22.50;94.80;;;;;;4964779;28;20209;-69
2023/07/13 07:08:49;;;;;;;3.93;2.00;;;22.40;95.50;;;;;;4966009;28;20169;-70
2023/07/13 07:11:18;;;;;;;1.90;1.53;;;22.40;95.10;;;;;;4964011;28;20409;-70
2023/07/13 07:13:44;;;;;;;2.13;1.67;;;22.40;93.40;;;;;;4964582;28;20543;-68
2023/07/13 07:16:09;;;;;;;3.83;1.70;;;22.10;92.90;;;;;;4968764;28;20417;-69
2023/07/13 07:18:35;;;;;;;2.00;1.50;;;22.40;93.40;;;;;;4967177;28;20651;-71
2023/07/13 07:21:02;;;;;;;4.33;1.60;;;22.30;93.30;;;;;;4965129;28;20166;-67
2023/07/13 07:23:27;;;;;;;1.87;1.37;;;22.40;92.10;;;;;;4967092;28;20174;-69
2023/07/13 07:25:53;;;;;;;2.53;1.70;;;22.50;92.90;;;;;;4965468;28;20800;-69
2023/07/13 07:28:19;;;;;;;2.70;1.33;;;22.60;92.90;;;;;;4967217;28;20254;-69
2023/07/13 07:30:46;;;;;;;3.50;1.50;;;22.40;92.30;;;;;;4965245;28;20417;-68
2023/07/13 07:33:11;;;;;;;2.70;1.20;;;22.30;91.80;;;;;;4967383;28;20453;-70
2023/07/13 07:35:37;;;;;;;2.50;1.40;;;22.30;92.10;;;;;;4966519;28;20452;-67
2023/07/13 07:38:03;;;;;;;4.33;1.60;;;22.40;91.80;;;;;;4968125;28;20659;-68
2023/07/13 07:40:28;;;;;;;2.93;1.60;;;22.40;91.60;;;;;;4965086;28;20251;-67
2023/07/13 07:42:54;;;;;;;2.00;1.50;;;22.40;91.10;;;;;;4966614;28;20594;-69
2023/07/13 07:45:20;;;;;;;1.90;1.37;;;22.50;91.30;;;;;;4967670;28;20613;-68
2023/07/13 07:47:45;;;;;;;2.17;1.37;;;22.60;92.30;;;;;;4967353;28;20249;-69
2023/07/13 07:50:11;;;;;;;2.17;1.50;;;22.60;91.90;;;;;;4966273;28;20402;-69
2023/07/13 07:52:37;;;;;;;4.60;1.60;;;22.70;91.70;;;;;;4966912;28;20731;-69
2023/07/13 07:55:04;;;;;;;4.53;1.37;;;22.80;90.30;;;;;;4964873;28;20182;-72
2023/07/13 07:57:30;;;;;;;5.27;1.77;;;22.60;90.70;;;;;;4966308;28;20173;-69
2023/07/13 07:59:56;;;;;;;5.23;2.03;;;22.50;90.30;;;;;;4965797;28;20406;-68
2023/07/13 08:02:21;;;;;;;3.70;1.40;;;22.40;91.30;;;;;;4967830;28;20202;-67
2023/07/13 08:04:47;;;;;;;2.80;1.40;;;22.60;91.60;;;;;;4963951;28;20178;-67
2023/07/13 08:07:13;;;;;;;3.00;1.67;;;22.60;90.40;;;;;;4967769;28;20158;-68
2023/07/13 08:09:38;;;;;;;2.53;1.50;;;22.60;90.00;;;;;;4964946;28;20224;-68
2023/07/13 08:12:04;;;;;;;3.40;1.30;;;22.80;90.90;;;;;;4967097;28;20252;-67
2023/07/13 08:14:30;;;;;;;2.40;1.80;;;23.00;90.20;;;;;;4965487;28;20261;-68
2023/07/13 08:16:56;;;;;;;2.57;1.77;;;22.90;89.70;;;;;;4967769;28;20998;-68
2023/07/13 08:19:21;;;;;;;2.50;1.37;;;23.00;89.30;;;;;;4960981;28;20174;-66
2023/07/13 08:21:48;;;;;;;2.40;1.40;;;23.00;88.10;;;;;;4966140;28;20177;-68
2023/07/13 08:24:14;;;;;;;3.90;1.70;;;23.20;87.00;;;;;;4966063;28;20582;-67
2023/07/13 08:26:40;;;;;;;3.07;1.40;;;23.20;86.70;;;;;;4965806;28;20512;-67
2023/07/13 08:29:05;;;;;;;3.67;1.67;;;23.30;86.40;;;;;;4964416;28;20173;-68
2023/07/13 08:31:31;;;;;;;3.83;1.77;;;23.00;87.10;;;;;;4965212;28;20205;-68
2023/07/13 08:33:57;;;;;;;4.00;1.70;;;22.90;87.50;;;;;;4966286;28;20192;-67
2023/07/13 08:36:22;;;;;;;3.87;1.53;;;22.70;88.10;;;;;;4962419;28;20248;-67
2023/07/13 08:38:48;;;;;;;3.30;1.77;;;22.80;87.90;;;;;;4965216;28;20165;-66
2023/07/13 08:41:18;;;;;;;4.13;1.60;;;22.90;88.70;;;;;;4964122;28;20641;-68
2023/07/13 08:43:48;;;;;;;2.60;1.40;;;23.30;88.30;;;;;;4967148;28;20169;-67
2023/07/13 08:46:35;;;;;;;5.10;1.70;;;23.60;88.70;;;;;;4959409;28;20508;-66
2023/07/13 08:49:18;;;;;;;3.00;1.57;;;23.80;88.30;;;;;;4960771;28;20500;-68
2023/07/13 08:52:00;;;;;;;5.00;1.80;;;23.80;86.90;;;;;;4964820;28;20779;-70
2023/07/13 08:54:45;;;;;;;5.67;1.70;;;23.90;86.00;;;;;;4962339;28;20410;-68
2023/07/13 08:57:18;;;;;;;7.10;2.00;;;23.80;86.50;;;;;;4961144;28;20983;-69
2023/07/13 08:59:44;;;;;;;3.53;1.77;;;23.70;88.80;;;;;;4959795;28;20449;-68
2023/07/13 09:02:39;;;;;;;7.43;1.80;;;24.00;87.70;;;;;;4965319;28;20397;-69
2023/07/13 09:05:12;;;;;;;3.60;2.20;;;23.90;87.90;;;;;;4960946;28;20459;-69
2023/07/13 09:07:53;;;;;;;3.80;2.00;;;23.90;88.30;;;;;;4965510;28;20401;-69
2023/07/13 09:10:30;;;;;;;3.40;1.83;;;23.80;88.00;;;;;;4965247;28;20389;-69
2023/07/13 09:13:32;;;;;;;2.40;1.70;;;23.70;87.70;;;;;;4962593;28;20564;-69
2023/07/13 09:15:59;;;;;;;3.87;1.53;;;23.70;87.00;;;;;;4964145;28;20519;-69
2023/07/13 09:18:29;;;;;;;5.00;2.10;;;23.60;88.00;;;;;;4966222;28;20419;-67
2023/07/13 09:21:13;;;;;;;3.10;1.70;;;23.80;87.00;;;;;;4959193;28;20409;-68
2023/07/13 09:23:39;;;;;;;3.00;1.60;;;23.80;87.30;;;;;;4960245;28;20406;-70
2023/07/13 09:26:13;;;;;;;3.17;1.77;;;23.70;87.00;;;;;;4965154;28;20491;-68
2023/07/13 09:28:43;;;;;;;3.53;1.57;;;23.70;86.00;;;;;;4965899;28;20412;-68
2023/07/13 09:31:21;;;;;;;3.87;1.70;;;23.60;86.30;;;;;;4963915;28;20401;-68
2023/07/13 09:33:48;;;;;;;2.27;1.50;;;24.00;87.00;;;;;;4965020;28;20547;-69
2023/07/13 09:36:29;;;;;;;2.90;1.73;;;24.50;85.30;;;;;;4961656;28;20506;-67
2023/07/13 09:39:10;;;;;;;3.70;1.70;;;24.90;84.40;;;;;;4963828;28;20447;-68
2023/07/13 09:42:06;;;;;;;2.37;1.53;;;25.20;83.40;;;;;;4965582;28;20400;-68
2023/07/13 09:44:53;;;;;;;2.50;1.70;;;24.90;82.70;;;;;;4962608;28;20489;-71
2023/07/13 09:47:23;;;;;;;5.03;1.97;;;24.50;83.50;;;;;;4958457;28;20393;-69
2023/07/13 09:49:55;;;;;;;5.20;2.47;;;24.30;83.70;;;;;;4962983;28;20413;-72
2023/07/13 09:52:21;;;;;;;2.47;1.53;;;24.50;84.20;;;;;;4964468;28;20868;-71
2023/07/13 09:54:52;;;;;;;2.07;1.47;;;24.50;82.40;;;;;;4965102;28;20409;-70
2023/07/13 09:57:23;;;;;;;4.33;1.57;;;24.70;82.80;;;;;;4965438;28;20185;-71
2023/07/13 09:59:51;;;;;;;4.23;1.60;;;25.10;83.00;;;;;;4946194;29;20409;-69
2023/07/13 10:02:37;;;;;;;2.30;1.60;;;25.20;79.90;;;;;;4964995;28;20828;-70
2023/07/13 10:05:10;;;;;;;3.10;1.60;;;24.70;80.20;;;;;;4959945;28;20512;-70
2023/07/13 10:07:44;;;;;;;5.73;1.87;;;25.00;80.30;;;;;;4959211;28;20429;-72
2023/07/13 10:10:22;;;;;;;4.63;1.43;;;25.30;80.10;;;;;;4959124;28;20405;-71
2023/07/13 10:12:49;;;;;;;3.30;1.90;;;25.70;80.60;;;;;;4959589;28;20445;-71
2023/07/13 10:15:25;;;;;;;3.90;1.63;;;26.00;77.90;;;;;;4965073;28;20520;-70
2023/07/13 10:17:52;;;;;;;4.43;1.80;;;25.90;78.10;;;;;;4963800;28;20397;-71
2023/07/13 10:20:20;;;;;;;2.93;1.87;;;26.20;77.40;;;;;;4962326;28;20416;-71
2023/07/13 10:22:52;;;;;;;4.53;1.77;;;26.30;77.20;;;;;;4953187;28;20422;-71
2023/07/13 10:25:26;;;;;;;4.03;1.97;;;26.20;76.20;;;;;;4965273;28;20507;-71
2023/07/13 10:28:04;;;;;;;4.93;2.13;;;26.20;77.10;;;;;;4960846;28;20568;-71
2023/07/13 10:30:35;;;;;;;3.70;1.60;;;26.60;77.80;;;;;;4960440;28;20892;-71
2023/07/13 10:33:03;;;;;;;3.23;1.47;;;26.80;74.40;;;;;;4965099;28;20444;-73
2023/07/13 10:35:30;;;;;;;4.47;1.60;;;26.80;73.10;;;;;;4958069;28;20426;-72
2023/07/13 10:38:06;;;;;;;2.37;1.43;;;26.70;73.60;;;;;;4962782;28;20424;-73
2023/07/13 10:40:42;;;;;;;6.20;1.80;;;26.50;73.10;;;;;;4964244;28;20485;-71
2023/07/13 10:43:39;;;;;;;5.40;2.10;;;26.90;75.50;;;;;;4963108;28;20778;-71
2023/07/13 10:46:10;;;;;;;4.50;1.60;;;27.40;75.70;;;;;;4962594;28;20444;-71
2023/07/13 10:48:36;;;;;;;3.43;1.63;;;27.50;73.10;;;;;;4962711;28;20518;-71
2023/07/13 10:51:06;;;;;;;4.33;1.63;;;27.60;71.00;;;;;;4964827;28;20773;-71
2023/07/13 10:53:34;;;;;;;3.93;1.80;;;27.80;71.00;;;;;;4962573;28;20449;-71
2023/07/13 10:56:02;;;;;;;5.47;2.03;;;27.40;71.00;;;;;;4963397;28;20427;-68
2023/07/13 10:58:36;;;;;;;1.83;1.27;;;27.40;69.90;;;;;;4964490;28;20508;-71
2023/07/13 11:01:15;;;;;;;4.13;1.70;;;26.70;69.90;;;;;;4966016;28;20405;-69
2023/07/13 11:03:43;;;;;;;3.10;1.60;;;26.90;72.90;;;;;;4969298;28;20854;-67
2023/07/13 11:06:29;;;;;;;3.90;2.03;;;27.20;69.60;;;;;;4964223;28;20453;-70
2023/07/13 11:09:17;;;;;;;2.27;1.40;;;27.40;69.90;;;;;;4965351;28;20405;-69
2023/07/13 11:11:43;;;;;;;2.43;1.40;;;27.30;68.40;;;;;;4961325;28;20401;-69
2023/07/13 11:14:40;;;;;;;6.67;1.50;;;27.20;70.70;;;;;;4964139;28;20453;-69
2023/07/13 11:17:32;;;;;;;3.17;1.60;;;27.30;68.60;;;;;;4965197;28;20173;-70
2023/07/13 11:20:23;;;;;;;2.33;1.60;;;27.40;68.10;;;;;;4966564;28;20452;-69
2023/07/13 11:22:52;;;;;;;2.27;1.40;;;27.80;68.20;;;;;;4955019;28;20409;-70
2023/07/13 11:25:26;;;;;;;6.30;2.27;;;28.10;67.60;;;;;;4965152;28;20787;-69
2023/07/13 11:28:06;;;;;;;5.80;1.63;;;28.20;66.40;;;;;;4963055;28;20396;-70
2023/07/13 11:30:37;;;;;;;6.23;2.00;;;27.40;67.50;;;;;;4962825;28;20405;-71
2023/07/13 11:33:14;;;;;;;3.03;1.60;;;27.30;68.50;;;;;;4968024;28;20789;-70
2023/07/13 11:35:59;;;;;;;4.70;1.70;;;27.10;70.70;;;;;;4961774;28;20567;-69
2023/07/13 11:38:40;;;;;;;2.10;1.53;;;28.10;67.20;;;;;;4956562;28;20405;-69
2023/07/13 11:41:15;;;;;;;2.50;1.70;;;29.40;64.20;;;;;;4965948;28;20404;-70
2023/07/13 11:43:42;;;;;;;4.57;1.77;;;30.80;60.70;;;;;;4966724;28;20401;-68
2023/07/13 11:46:22;;;;;;;2.80;1.60;;;31.50;57.70;;;;;;4956217;28;20503;-70
2023/07/13 11:48:49;;;;;;;3.00;1.57;;;30.20;59.90;;;;;;4963826;28;20406;-68
2023/07/13 11:51:21;;;;;;;2.63;1.50;;;30.70;59.90;;;;;;4967285;28;20405;-66
2023/07/13 11:53:49;;;;;;;7.03;1.60;;;30.40;58.00;;;;;;4964880;28;20445;-67
2023/07/13 11:56:15;;;;;;;3.27;1.67;;;28.50;61.50;;;;;;4963281;28;20468;-67
2023/07/13 11:58:41;;;;;;;2.13;1.57;;;27.90;63.90;;;;;;4965898;28;20429;-69
2023/07/13 12:01:21;;;;;;;2.00;1.40;;;27.70;63.50;;;;;;4965306;28;20282;-70
2023/07/13 12:03:48;;;;;;;2.63;1.33;;;29.10;63.00;;;;;;4966153;28;20251;-71
2023/07/13 12:06:29;;;;;;;5.43;1.50;;;30.70;59.20;;;;;;4967938;28;20471;-70
2023/07/13 12:09:12;;;;;;;5.80;1.53;;;32.40;55.40;;;;;;4951666;28;20409;-70
2023/07/13 12:11:41;;;;;;;4.93;1.90;;;31.70;55.20;;;;;;4965641;28;20746;-72
2023/07/13 12:14:12;;;;;;;3.77;1.60;;;31.80;55.10;;;;;;4965510;28;20457;-69
2023/07/13 12:16:37;;;;;;;3.10;1.40;;;32.30;53.80;;;;;;4964851;28;20427;-69
2023/07/13 12:19:03;;;;;;;4.10;1.60;;;30.70;55.40;;;;;;4966805;28;20409;-67
2023/07/13 12:21:37;;;;;;;2.70;1.40;;;29.70;57.40;;;;;;4965166;28;20165;-76
2023/07/13 12:24:03;;;;;;;3.60;1.13;;;30.30;56.80;;;;;;4966391;28;20167;-75
2023/07/13 12:26:30;;;;;;;10.40;1.53;;;30.00;57.90;;;;;;4963133;28;20434;-75
2023/07/13 12:28:58;;;;;;;3.87;1.73;;;30.80;55.70;;;;;;4972367;28;20429;-74
2023/07/13 12:31:38;;;;;;;4.17;1.37;;;31.60;54.80;;;;;;4964651;28;20794;-74
2023/07/13 12:34:15;;;;;;;5.20;1.60;;;31.10;53.10;;;;;;4967272;28;20440;-72
2023/07/13 12:37:02;;;;;;;3.20;1.63;;;30.30;55.00;;;;;;4960739;28;20811;-72
2023/07/13 12:39:36;;;;;;;2.70;1.40;;;30.50;55.00;;;;;;4957768;28;20431;-76
2023/07/13 12:42:32;;;;;;;4.00;1.53;;;29.40;55.80;;;;;;4954497;28;20433;-73
2023/07/13 12:45:05;;;;;;;6.60;2.20;;;28.40;57.30;;;;;;4954860;28;21145;-75
2023/07/13 12:47:41;;;;;;;1.90;1.50;;;27.90;58.50;;;;;;4952052;28;20417;-76
2023/07/13 12:50:18;;;;;;;6.10;1.60;;;28.30;58.60;;;;;;4957278;28;20412;-72
2023/07/13 12:52:51;;;;;;;2.60;1.70;;;29.40;57.10;;;;;;4963290;28;20476;-74
2023/07/13 12:55:21;;;;;;;5.40;2.10;;;30.80;54.30;;;;;;4957677;28;20791;-73
2023/07/13 12:57:52;;;;;;;2.73;1.53;;;31.80;52.10;;;;;;4967047;28;20406;-72